sensor_id;sensor_type;location;lat;lon;timestamp;temperature;humidity
68912;SHT31;55953;51.650;-0.522;2023-06-05T00:01:54;10.45;75.81
68912;SHT31;55953;51.650;-0.522;2023-06-05T00:04:22;10.43;75.78
68912;SHT31;55953;51.650;-0.522;2023-06-05T00:06:51;10.40;75.69
68912;SHT31;55953;51.650;-0.522;2023-06-05T00:09:19;10.37;75.73
68912;SHT31;55953;51.650;-0.522;2023-06-05T00:11:47;10.32;75.90
68912;SHT31;55953;51.650;-0.522;2023-06-05T00:14:15;10.25;76.08
68912;SHT31;55953;51.650;-0.522;2023-06-05T00:16:43;10.19;76.36
68912;SHT31;55953;51.650;-0.522;2023-06-05T00:19:11;10.13;76.67
68912;SHT31;55953;51.650;-0.522;2023-06-05T00:21:39;10.08;76.48
68912;SHT31;55953;51.650;-0.522;2023-06-05T00:24:07;10.07;76.40
68912;SHT31;55953;51.650;-0.522;2023-06-05T00:26:35;10.01;76.69
68912;SHT31;55953;51.650;-0.522;2023-06-05T00:29:03;9.96;76.74
68912;SHT31;55953;51.650;-0.522;2023-06-05T00:31:33;9.91;76.90
68912;SHT31;55953;51.650;-0.522;2023-06-05T00:34:01;9.90;76.68
68912;SHT31;55953;51.650;-0.522;2023-06-05T00:36:29;9.84;77.05
68912;SHT31;55953;51.650;-0.522;2023-06-05T00:38:57;9.78;76.93
68912;SHT31;55953;51.650;-0.522;2023-06-05T00:41:25;9.73;77.11
68912;SHT31;55953;51.650;-0.522;2023-06-05T00:43:53;9.74;77.02
68912;SHT31;55953;51.650;-0.522;2023-06-05T00:46:21;9.71;77.08
68912;SHT31;55953;51.650;-0.522;2023-06-05T00:48:49;9.66;77.37
68912;SHT31;55953;51.650;-0.522;2023-06-05T00:51:18;9.63;77.53
68912;SHT31;55953;51.650;-0.522;2023-06-05T00:53:47;9.61;77.37
68912;SHT31;55953;51.650;-0.522;2023-06-05T00:56:15;9.60;77.27
68912;SHT31;55953;51.650;-0.522;2023-06-05T00:58:48;9.62;77.30
68912;SHT31;55953;51.650;-0.522;2023-06-05T01:01:17;9.65;77.35
68912;SHT31;55953;51.650;-0.522;2023-06-05T01:03:45;9.70;77.55
68912;SHT31;55953;51.650;-0.522;2023-06-05T01:06:13;9.80;77.36
68912;SHT31;55953;51.650;-0.522;2023-06-05T01:08:44;9.85;77.32
68912;SHT31;55953;51.650;-0.522;2023-06-05T01:11:19;9.91;77.13
68912;SHT31;55953;51.650;-0.522;2023-06-05T01:14:02;10.01;76.97
68912;SHT31;55953;51.650;-0.522;2023-06-05T01:16:38;10.08;76.85
68912;SHT31;55953;51.650;-0.522;2023-06-05T01:19:08;10.14;76.79
68912;SHT31;55953;51.650;-0.522;2023-06-05T01:21:42;10.19;76.50
68912;SHT31;55953;51.650;-0.522;2023-06-05T01:24:10;10.22;76.28
68912;SHT31;55953;51.650;-0.522;2023-06-05T01:29:51;10.34;76.00
68912;SHT31;55953;51.650;-0.522;2023-06-05T01:32:32;10.34;75.95
68912;SHT31;55953;51.650;-0.522;2023-06-05T01:35:12;10.34;75.86
68912;SHT31;55953;51.650;-0.522;2023-06-05T01:37:47;10.37;75.75
68912;SHT31;55953;51.650;-0.522;2023-06-05T01:40:19;10.40;75.51
68912;SHT31;55953;51.650;-0.522;2023-06-05T01:42:50;10.37;75.71
68912;SHT31;55953;51.650;-0.522;2023-06-05T01:45:21;10.34;75.56
68912;SHT31;55953;51.650;-0.522;2023-06-05T01:47:49;10.36;75.36
68912;SHT31;55953;51.650;-0.522;2023-06-05T01:50:18;10.40;75.18
68912;SHT31;55953;51.650;-0.522;2023-06-05T01:52:46;10.43;75.02
68912;SHT31;55953;51.650;-0.522;2023-06-05T01:55:16;10.47;74.80
68912;SHT31;55953;51.650;-0.522;2023-06-05T01:57:47;10.50;74.73
68912;SHT31;55953;51.650;-0.522;2023-06-05T02:00:15;10.50;74.59
68912;SHT31;55953;51.650;-0.522;2023-06-05T02:02:46;10.48;74.55
68912;SHT31;55953;51.650;-0.522;2023-06-05T02:05:17;10.47;74.38
68912;SHT31;55953;51.650;-0.522;2023-06-05T02:07:48;10.48;74.14
68912;SHT31;55953;51.650;-0.522;2023-06-05T02:10:21;10.47;74.09
68912;SHT31;55953;51.650;-0.522;2023-06-05T02:12:51;10.47;74.01
68912;SHT31;55953;51.650;-0.522;2023-06-05T02:15:19;10.48;73.83
68912;SHT31;55953;51.650;-0.522;2023-06-05T02:17:47;10.44;74.00
68912;SHT31;55953;51.650;-0.522;2023-06-05T02:20:23;10.41;74.05
68912;SHT31;55953;51.650;-0.522;2023-06-05T02:22:53;10.40;74.02
68912;SHT31;55953;51.650;-0.522;2023-06-05T02:25:22;10.40;73.86
68912;SHT31;55953;51.650;-0.522;2023-06-05T02:27:54;10.43;73.71
68912;SHT31;55953;51.650;-0.522;2023-06-05T02:30:23;10.41;73.86
68912;SHT31;55953;51.650;-0.522;2023-06-05T02:32:51;10.43;73.94
68912;SHT31;55953;51.650;-0.522;2023-06-05T02:35:29;10.49;73.86
68912;SHT31;55953;51.650;-0.522;2023-06-05T02:37:57;10.53;73.75
68912;SHT31;55953;51.650;-0.522;2023-06-05T02:40:25;10.54;73.81
68912;SHT31;55953;51.650;-0.522;2023-06-05T02:42:53;10.51;73.93
68912;SHT31;55953;51.650;-0.522;2023-06-05T02:45:22;10.52;73.80
68912;SHT31;55953;51.650;-0.522;2023-06-05T02:47:50;10.54;73.87
68912;SHT31;55953;51.650;-0.522;2023-06-05T02:50:19;10.56;73.91
68912;SHT31;55953;51.650;-0.522;2023-06-05T02:52:50;10.54;73.97
68912;SHT31;55953;51.650;-0.522;2023-06-05T02:55:24;10.51;74.03
68912;SHT31;55953;51.650;-0.522;2023-06-05T02:57:52;10.52;74.01
68912;SHT31;55953;51.650;-0.522;2023-06-05T03:00:25;10.51;74.15
68912;SHT31;55953;51.650;-0.522;2023-06-05T03:02:54;10.47;74.29
68912;SHT31;55953;51.650;-0.522;2023-06-05T03:05:27;10.49;74.35
68912;SHT31;55953;51.650;-0.522;2023-06-05T03:08:00;10.50;74.16
68912;SHT31;55953;51.650;-0.522;2023-06-05T03:10:29;10.54;74.16
68912;SHT31;55953;51.650;-0.522;2023-06-05T03:12:57;10.54;74.27
68912;SHT31;55953;51.650;-0.522;2023-06-05T03:15:28;10.55;74.25
68912;SHT31;55953;51.650;-0.522;2023-06-05T03:17:56;10.56;74.24
68912;SHT31;55953;51.650;-0.522;2023-06-05T03:20:24;10.54;74.53
68912;SHT31;55953;51.650;-0.522;2023-06-05T03:22:53;10.50;74.64
68912;SHT31;55953;51.650;-0.522;2023-06-05T03:25:22;10.51;74.52
68912;SHT31;55953;51.650;-0.522;2023-06-05T03:27:53;10.57;74.41
68912;SHT31;55953;51.650;-0.522;2023-06-05T03:30:21;10.56;74.38
68912;SHT31;55953;51.650;-0.522;2023-06-05T03:32:51;10.61;74.27
68912;SHT31;55953;51.650;-0.522;2023-06-05T03:35:19;10.64;74.30
68912;SHT31;55953;51.650;-0.522;2023-06-05T03:37:47;10.63;74.32
68912;SHT31;55953;51.650;-0.522;2023-06-05T03:40:15;10.70;74.21
68912;SHT31;55953;51.650;-0.522;2023-06-05T03:42:43;10.73;74.15
68912;SHT31;55953;51.650;-0.522;2023-06-05T03:45:11;10.75;74.14
68912;SHT31;55953;51.650;-0.522;2023-06-05T03:47:41;10.75;74.01
68912;SHT31;55953;51.650;-0.522;2023-06-05T03:50:11;10.81;73.88
68912;SHT31;55953;51.650;-0.522;2023-06-05T03:52:42;10.86;73.88
68912;SHT31;55953;51.650;-0.522;2023-06-05T03:55:10;10.79;73.96
68912;SHT31;55953;51.650;-0.522;2023-06-05T03:57:39;10.78;73.97
68912;SHT31;55953;51.650;-0.522;2023-06-05T04:00:08;10.80;74.05
68912;SHT31;55953;51.650;-0.522;2023-06-05T04:02:40;10.81;74.06
68912;SHT31;55953;51.650;-0.522;2023-06-05T04:05:11;10.81;74.09
68912;SHT31;55953;51.650;-0.522;2023-06-05T04:07:40;10.82;74.05
68912;SHT31;55953;51.650;-0.522;2023-06-05T04:10:08;10.87;73.96
68912;SHT31;55953;51.650;-0.522;2023-06-05T04:12:36;10.89;74.10
68912;SHT31;55953;51.650;-0.522;2023-06-05T04:15:05;10.86;74.23
68912;SHT31;55953;51.650;-0.522;2023-06-05T04:17:34;10.83;74.41
68912;SHT31;55953;51.650;-0.522;2023-06-05T04:20:05;10.91;74.17
68912;SHT31;55953;51.650;-0.522;2023-06-05T04:22:37;11.00;74.10
68912;SHT31;55953;51.650;-0.522;2023-06-05T04:25:05;10.99;74.22
68912;SHT31;55953;51.650;-0.522;2023-06-05T04:27:33;10.94;74.41
68912;SHT31;55953;51.650;-0.522;2023-06-05T04:30:03;10.92;74.45
68912;SHT31;55953;51.650;-0.522;2023-06-05T04:32:34;10.95;74.45
68912;SHT31;55953;51.650;-0.522;2023-06-05T04:35:06;10.93;74.49
68912;SHT31;55953;51.650;-0.522;2023-06-05T04:37:38;10.94;74.27
68912;SHT31;55953;51.650;-0.522;2023-06-05T04:40:07;10.99;74.18
68912;SHT31;55953;51.650;-0.522;2023-06-05T04:42:38;11.04;74.04
68912;SHT31;55953;51.650;-0.522;2023-06-05T04:45:07;11.05;74.15
68912;SHT31;55953;51.650;-0.522;2023-06-05T04:47:38;11.05;74.08
68912;SHT31;55953;51.650;-0.522;2023-06-05T04:50:06;10.97;74.20
68912;SHT31;55953;51.650;-0.522;2023-06-05T04:52:36;10.95;74.19
68912;SHT31;55953;51.650;-0.522;2023-06-05T04:55:07;10.97;74.28
68912;SHT31;55953;51.650;-0.522;2023-06-05T04:57:36;11.02;74.15
68912;SHT31;55953;51.650;-0.522;2023-06-05T05:00:05;11.09;73.97
68912;SHT31;55953;51.650;-0.522;2023-06-05T05:02:36;11.10;73.93
68912;SHT31;55953;51.650;-0.522;2023-06-05T05:05:04;11.11;73.85
68912;SHT31;55953;51.650;-0.522;2023-06-05T05:07:33;11.19;73.89
68912;SHT31;55953;51.650;-0.522;2023-06-05T05:10:03;11.26;73.75
68912;SHT31;55953;51.650;-0.522;2023-06-05T05:12:32;11.26;73.76
68912;SHT31;55953;51.650;-0.522;2023-06-05T05:15:00;11.29;73.64
68912;SHT31;55953;51.650;-0.522;2023-06-05T05:17:30;11.34;73.46
68912;SHT31;55953;51.650;-0.522;2023-06-05T05:19:59;11.38;73.43
68912;SHT31;55953;51.650;-0.522;2023-06-05T05:22:28;11.38;73.31
68912;SHT31;55953;51.650;-0.522;2023-06-05T05:24:56;11.43;73.35
68912;SHT31;55953;51.650;-0.522;2023-06-05T05:27:24;11.49;73.18
68912;SHT31;55953;51.650;-0.522;2023-06-05T05:29:52;11.54;73.13
68912;SHT31;55953;51.650;-0.522;2023-06-05T05:32:20;11.60;73.01
68912;SHT31;55953;51.650;-0.522;2023-06-05T05:34:48;11.64;72.88
68912;SHT31;55953;51.650;-0.522;2023-06-05T05:37:18;11.67;72.79
68912;SHT31;55953;51.650;-0.522;2023-06-05T05:39:46;11.65;72.81
68912;SHT31;55953;51.650;-0.522;2023-06-05T05:42:15;11.71;72.77
68912;SHT31;55953;51.650;-0.522;2023-06-05T05:44:44;11.76;72.76
68912;SHT31;55953;51.650;-0.522;2023-06-05T05:47:12;11.82;72.60
68912;SHT31;55953;51.650;-0.522;2023-06-05T05:49:40;11.85;72.63
68912;SHT31;55953;51.650;-0.522;2023-06-05T05:52:08;11.94;72.58
68912;SHT31;55953;51.650;-0.522;2023-06-05T05:54:37;11.92;72.17
68912;SHT31;55953;51.650;-0.522;2023-06-05T05:57:05;11.91;72.20
68912;SHT31;55953;51.650;-0.522;2023-06-05T05:59:34;11.90;72.08
68912;SHT31;55953;51.650;-0.522;2023-06-05T06:02:02;11.88;72.04
68912;SHT31;55953;51.650;-0.522;2023-06-05T06:04:38;11.89;72.00
68912;SHT31;55953;51.650;-0.522;2023-06-05T06:07:07;11.89;71.72
68912;SHT31;55953;51.650;-0.522;2023-06-05T06:09:35;11.87;71.58
68912;SHT31;55953;51.650;-0.522;2023-06-05T06:12:04;11.92;71.63
68912;SHT31;55953;51.650;-0.522;2023-06-05T06:14:34;11.95;71.40
68912;SHT31;55953;51.650;-0.522;2023-06-05T06:17:03;11.87;71.42
68912;SHT31;55953;51.650;-0.522;2023-06-05T06:19:33;11.86;71.61
68912;SHT31;55953;51.650;-0.522;2023-06-05T06:22:01;11.94;71.73
68912;SHT31;55953;51.650;-0.522;2023-06-05T06:24:29;12.04;71.43
68912;SHT31;55953;51.650;-0.522;2023-06-05T06:26:57;12.01;71.34
68912;SHT31;55953;51.650;-0.522;2023-06-05T06:29:25;12.03;71.46
68912;SHT31;55953;51.650;-0.522;2023-06-05T06:31:55;12.13;71.29
68912;SHT31;55953;51.650;-0.522;2023-06-05T06:34:23;12.19;71.03
68912;SHT31;55953;51.650;-0.522;2023-06-05T06:36:52;12.25;70.88
68912;SHT31;55953;51.650;-0.522;2023-06-05T06:39:20;12.26;70.72
68912;SHT31;55953;51.650;-0.522;2023-06-05T06:41:49;12.25;70.49
68912;SHT31;55953;51.650;-0.522;2023-06-05T06:44:21;12.28;70.42
68912;SHT31;55953;51.650;-0.522;2023-06-05T06:46:49;12.28;70.16
68912;SHT31;55953;51.650;-0.522;2023-06-05T06:49:17;12.30;70.38
68912;SHT31;55953;51.650;-0.522;2023-06-05T06:51:45;12.42;70.19
68912;SHT31;55953;51.650;-0.522;2023-06-05T06:54:13;12.47;70.14
68912;SHT31;55953;51.650;-0.522;2023-06-05T06:56:40;12.50;69.91
68912;SHT31;55953;51.650;-0.522;2023-06-05T06:59:13;12.54;69.85
68912;SHT31;55953;51.650;-0.522;2023-06-05T07:01:42;12.58;69.71
68912;SHT31;55953;51.650;-0.522;2023-06-05T07:04:14;12.52;69.71
68912;SHT31;55953;51.650;-0.522;2023-06-05T07:06:44;12.52;69.92
68912;SHT31;55953;51.650;-0.522;2023-06-05T07:09:12;12.52;69.82
68912;SHT31;55953;51.650;-0.522;2023-06-05T07:11:40;12.52;69.81
68912;SHT31;55953;51.650;-0.522;2023-06-05T07:14:08;12.56;69.87
68912;SHT31;55953;51.650;-0.522;2023-06-05T07:16:36;12.58;69.51
68912;SHT31;55953;51.650;-0.522;2023-06-05T07:19:03;12.58;69.44
68912;SHT31;55953;51.650;-0.522;2023-06-05T07:21:31;12.61;69.44
68912;SHT31;55953;51.650;-0.522;2023-06-05T07:24:05;12.61;69.48
68912;SHT31;55953;51.650;-0.522;2023-06-05T07:26:33;12.58;69.40
68912;SHT31;55953;51.650;-0.522;2023-06-05T07:29:01;12.60;69.74
68912;SHT31;55953;51.650;-0.522;2023-06-05T07:31:29;12.77;69.75
68912;SHT31;55953;51.650;-0.522;2023-06-05T07:33:58;12.91;69.81
68912;SHT31;55953;51.650;-0.522;2023-06-05T07:36:25;13.03;69.31
68912;SHT31;55953;51.650;-0.522;2023-06-05T07:38:53;13.09;69.18
68912;SHT31;55953;51.650;-0.522;2023-06-05T07:41:22;13.13;68.82
68912;SHT31;55953;51.650;-0.522;2023-06-05T07:43:50;13.17;68.69
68912;SHT31;55953;51.650;-0.522;2023-06-05T07:46:18;13.23;68.65
68912;SHT31;55953;51.650;-0.522;2023-06-05T07:48:46;13.29;68.53
68912;SHT31;55953;51.650;-0.522;2023-06-05T07:51:14;13.29;68.38
68912;SHT31;55953;51.650;-0.522;2023-06-05T07:53:45;13.25;67.97
68912;SHT31;55953;51.650;-0.522;2023-06-05T07:56:13;13.27;67.99
68912;SHT31;55953;51.650;-0.522;2023-06-05T07:58:44;13.27;67.55
68912;SHT31;55953;51.650;-0.522;2023-06-05T08:01:12;13.37;67.48
68912;SHT31;55953;51.650;-0.522;2023-06-05T08:03:43;13.44;66.94
68912;SHT31;55953;51.650;-0.522;2023-06-05T08:06:11;13.46;67.09
68912;SHT31;55953;51.650;-0.522;2023-06-05T08:08:40;13.34;66.72
68912;SHT31;55953;51.650;-0.522;2023-06-05T08:11:10;13.33;66.94
68912;SHT31;55953;51.650;-0.522;2023-06-05T08:13:38;13.50;67.19
68912;SHT31;55953;51.650;-0.522;2023-06-05T08:16:06;13.64;66.83
68912;SHT31;55953;51.650;-0.522;2023-06-05T08:18:34;13.64;66.21
68912;SHT31;55953;51.650;-0.522;2023-06-05T08:21:03;13.67;66.51
68912;SHT31;55953;51.650;-0.522;2023-06-05T08:23:30;13.77;66.55
68912;SHT31;55953;51.650;-0.522;2023-06-05T08:25:58;13.88;66.21
68912;SHT31;55953;51.650;-0.522;2023-06-05T08:28:26;13.95;66.14
68912;SHT31;55953;51.650;-0.522;2023-06-05T08:30:54;13.92;66.00
68912;SHT31;55953;51.650;-0.522;2023-06-05T08:33:24;13.86;65.86
68912;SHT31;55953;51.650;-0.522;2023-06-05T08:35:52;13.68;66.35
68912;SHT31;55953;51.650;-0.522;2023-06-05T08:38:20;13.54;66.63
68912;SHT31;55953;51.650;-0.522;2023-06-05T08:40:48;13.61;67.10
68912;SHT31;55953;51.650;-0.522;2023-06-05T08:43:28;13.80;67.03
68912;SHT31;55953;51.650;-0.522;2023-06-05T08:45:56;14.02;66.52
68912;SHT31;55953;51.650;-0.522;2023-06-05T08:48:25;14.19;65.90
68912;SHT31;55953;51.650;-0.522;2023-06-05T08:50:53;14.32;65.67
68912;SHT31;55953;51.650;-0.522;2023-06-05T08:53:22;14.42;65.09
68912;SHT31;55953;51.650;-0.522;2023-06-05T08:55:54;14.45;65.02
68912;SHT31;55953;51.650;-0.522;2023-06-05T08:58:23;14.37;64.44
68912;SHT31;55953;51.650;-0.522;2023-06-05T09:00:52;14.32;64.78
68912;SHT31;55953;51.650;-0.522;2023-06-05T09:03:20;14.38;65.12
68912;SHT31;55953;51.650;-0.522;2023-06-05T09:05:48;14.57;65.24
68912;SHT31;55953;51.650;-0.522;2023-06-05T09:08:16;14.72;64.54
68912;SHT31;55953;51.650;-0.522;2023-06-05T09:10:46;14.81;64.15
68912;SHT31;55953;51.650;-0.522;2023-06-05T09:13:14;14.97;64.18
68912;SHT31;55953;51.650;-0.522;2023-06-05T09:15:42;15.15;63.38
68912;SHT31;55953;51.650;-0.522;2023-06-05T09:18:18;15.34;62.86
68912;SHT31;55953;51.650;-0.522;2023-06-05T09:20:46;15.52;62.09
68912;SHT31;55953;51.650;-0.522;2023-06-05T09:25:59;15.65;60.79
68912;SHT31;55953;51.650;-0.522;2023-06-05T09:28:29;15.68;61.01
68912;SHT31;55953;51.650;-0.522;2023-06-05T09:31:01;15.74;61.16
68912;SHT31;55953;51.650;-0.522;2023-06-05T09:33:31;15.83;60.95
68912;SHT31;55953;51.650;-0.522;2023-06-05T09:38:37;15.89;60.60
68912;SHT31;55953;51.650;-0.522;2023-06-05T09:41:08;15.86;60.63
68912;SHT31;55953;51.650;-0.522;2023-06-05T09:43:38;15.81;60.96
68912;SHT31;55953;51.650;-0.522;2023-06-05T09:46:13;15.73;60.19
68912;SHT31;55953;51.650;-0.522;2023-06-05T09:48:42;15.64;60.52
68912;SHT31;55953;51.650;-0.522;2023-06-05T09:51:20;15.72;60.83
68912;SHT31;55953;51.650;-0.522;2023-06-05T09:53:49;15.75;60.22
68912;SHT31;55953;51.650;-0.522;2023-06-05T09:56:18;15.64;60.07
68912;SHT31;55953;51.650;-0.522;2023-06-05T09:58:50;15.64;60.34
68912;SHT31;55953;51.650;-0.522;2023-06-05T10:01:21;15.74;60.60
68912;SHT31;55953;51.650;-0.522;2023-06-05T10:06:27;15.84;59.90
68912;SHT31;55953;51.650;-0.522;2023-06-05T10:08:56;15.87;60.33
68912;SHT31;55953;51.650;-0.522;2023-06-05T10:11:24;16.08;60.58
68912;SHT31;55953;51.650;-0.522;2023-06-05T10:13:54;16.32;59.77
68912;SHT31;55953;51.650;-0.522;2023-06-05T10:16:27;16.32;58.92
68912;SHT31;55953;51.650;-0.522;2023-06-05T10:18:56;16.35;59.37
68912;SHT31;55953;51.650;-0.522;2023-06-05T10:21:27;16.54;59.28
68912;SHT31;55953;51.650;-0.522;2023-06-05T10:38:38;16.94;58.44
68912;SHT31;55953;51.650;-0.522;2023-06-05T10:41:07;17.09;58.24
68912;SHT31;55953;51.650;-0.522;2023-06-05T10:43:36;17.30;57.68
68912;SHT31;55953;51.650;-0.522;2023-06-05T10:46:28;17.43;56.81
68912;SHT31;55953;51.650;-0.522;2023-06-05T10:49:07;17.46;56.05
68912;SHT31;55953;51.650;-0.522;2023-06-05T10:51:43;17.35;56.09
68912;SHT31;55953;51.650;-0.522;2023-06-05T11:07:29;17.31;56.87
68912;SHT31;55953;51.650;-0.522;2023-06-05T11:10:11;17.35;57.13
68912;SHT31;55953;51.650;-0.522;2023-06-05T11:15:13;17.63;56.35
68912;SHT31;55953;51.650;-0.522;2023-06-05T11:27:59;18.63;53.20
68912;SHT31;55953;51.650;-0.522;2023-06-05T11:30:40;18.66;53.71
68912;SHT31;55953;51.650;-0.522;2023-06-05T11:33:17;18.91;53.78
68912;SHT31;55953;51.650;-0.522;2023-06-05T11:35:49;19.09;52.84
68912;SHT31;55953;51.650;-0.522;2023-06-05T11:38:20;18.79;51.51
68912;SHT31;55953;51.650;-0.522;2023-06-05T11:40:53;18.75;52.87
68912;SHT31;55953;51.650;-0.522;2023-06-05T11:43:23;18.96;52.89
68912;SHT31;55953;51.650;-0.522;2023-06-05T11:45:55;18.93;51.11
68912;SHT31;55953;51.650;-0.522;2023-06-05T11:48:25;18.82;52.01
68912;SHT31;55953;51.650;-0.522;2023-06-05T11:50:55;18.98;52.28
68912;SHT31;55953;51.650;-0.522;2023-06-05T11:53:29;19.20;52.37
68912;SHT31;55953;51.650;-0.522;2023-06-05T11:55:59;19.49;51.90
68912;SHT31;55953;51.650;-0.522;2023-06-05T11:58:37;19.70;51.22
68912;SHT31;55953;51.650;-0.522;2023-06-05T12:03:45;19.90;51.13
68912;SHT31;55953;51.650;-0.522;2023-06-05T12:06:15;20.02;50.68
68912;SHT31;55953;51.650;-0.522;2023-06-05T12:08:45;20.08;50.21
68912;SHT31;55953;51.650;-0.522;2023-06-05T12:11:23;19.88;49.59
68912;SHT31;55953;51.650;-0.522;2023-06-05T12:13:55;19.64;49.68
68912;SHT31;55953;51.650;-0.522;2023-06-05T12:16:37;19.34;50.80
68912;SHT31;55953;51.650;-0.522;2023-06-05T12:19:14;19.47;51.36
68912;SHT31;55953;51.650;-0.522;2023-06-05T12:21:46;19.59;51.33
68912;SHT31;55953;51.650;-0.522;2023-06-05T12:24:22;19.54;50.67
68912;SHT31;55953;51.650;-0.522;2023-06-05T12:26:54;19.30;50.77
68912;SHT31;55953;51.650;-0.522;2023-06-05T12:29:35;19.14;51.10
68912;SHT31;55953;51.650;-0.522;2023-06-05T12:32:23;19.17;51.13
68912;SHT31;55953;51.650;-0.522;2023-06-05T12:34:54;19.23;51.26
68912;SHT31;55953;51.650;-0.522;2023-06-05T12:37:34;19.18;50.81
68912;SHT31;55953;51.650;-0.522;2023-06-05T12:40:06;19.22;51.78
68912;SHT31;55953;51.650;-0.522;2023-06-05T12:42:39;19.32;51.62
68912;SHT31;55953;51.650;-0.522;2023-06-05T12:45:11;19.30;51.17
68912;SHT31;55953;51.650;-0.522;2023-06-05T12:47:40;19.21;50.99
68912;SHT31;55953;51.650;-0.522;2023-06-05T12:50:10;19.63;51.43
68912;SHT31;55953;51.650;-0.522;2023-06-05T12:52:40;20.29;50.24
68912;SHT31;55953;51.650;-0.522;2023-06-05T12:55:09;20.85;49.45
68912;SHT31;55953;51.650;-0.522;2023-06-05T12:57:38;20.74;47.93
68912;SHT31;55953;51.650;-0.522;2023-06-05T13:00:07;20.77;48.50
68912;SHT31;55953;51.650;-0.522;2023-06-05T13:02:41;20.65;47.97
68912;SHT31;55953;51.650;-0.522;2023-06-05T13:05:15;20.25;47.80
68912;SHT31;55953;51.650;-0.522;2023-06-05T13:07:43;20.02;48.93
68912;SHT31;55953;51.650;-0.522;2023-06-05T13:10:12;20.13;48.94
68912;SHT31;55953;51.650;-0.522;2023-06-05T13:12:40;20.04;48.89
68912;SHT31;55953;51.650;-0.522;2023-06-05T13:15:10;20.13;49.13
68912;SHT31;55953;51.650;-0.522;2023-06-05T13:17:39;20.09;49.04
68912;SHT31;55953;51.650;-0.522;2023-06-05T13:20:07;20.10;49.30
68912;SHT31;55953;51.650;-0.522;2023-06-05T13:22:41;20.18;49.31
68912;SHT31;55953;51.650;-0.522;2023-06-05T13:25:09;20.23;49.19
68912;SHT31;55953;51.650;-0.522;2023-06-05T13:27:38;20.34;49.13
68912;SHT31;55953;51.650;-0.522;2023-06-05T13:30:06;20.43;49.16
68912;SHT31;55953;51.650;-0.522;2023-06-05T13:32:35;20.74;48.43
68912;SHT31;55953;51.650;-0.522;2023-06-05T13:35:06;20.95;47.90
68912;SHT31;55953;51.650;-0.522;2023-06-05T13:37:36;20.77;48.20
68912;SHT31;55953;51.650;-0.522;2023-06-05T13:40:06;20.61;48.37
68912;SHT31;55953;51.650;-0.522;2023-06-05T13:42:38;20.39;47.67
68912;SHT31;55953;51.650;-0.522;2023-06-05T13:45:06;20.29;48.52
68912;SHT31;55953;51.650;-0.522;2023-06-05T13:47:35;20.43;49.17
68912;SHT31;55953;51.650;-0.522;2023-06-05T13:50:04;20.56;48.71
68912;SHT31;55953;51.650;-0.522;2023-06-05T13:52:32;20.30;48.10
68912;SHT31;55953;51.650;-0.522;2023-06-05T13:55:00;20.16;48.36
68912;SHT31;55953;51.650;-0.522;2023-06-05T13:57:28;20.12;48.66
68912;SHT31;55953;51.650;-0.522;2023-06-05T13:59:56;20.03;48.77
68912;SHT31;55953;51.650;-0.522;2023-06-05T14:02:24;20.17;49.28
68912;SHT31;55953;51.650;-0.522;2023-06-05T14:04:52;20.45;48.52
68912;SHT31;55953;51.650;-0.522;2023-06-05T14:07:20;20.56;48.91
68912;SHT31;55953;51.650;-0.522;2023-06-05T14:09:49;20.44;48.20
68912;SHT31;55953;51.650;-0.522;2023-06-05T14:12:17;20.26;48.85
68912;SHT31;55953;51.650;-0.522;2023-06-05T14:14:45;20.21;49.11
68912;SHT31;55953;51.650;-0.522;2023-06-05T14:17:13;20.13;49.06
68912;SHT31;55953;51.650;-0.522;2023-06-05T14:19:41;20.17;48.94
68912;SHT31;55953;51.650;-0.522;2023-06-05T14:22:09;20.47;48.99
68912;SHT31;55953;51.650;-0.522;2023-06-05T14:24:39;20.74;48.04
68912;SHT31;55953;51.650;-0.522;2023-06-05T14:27:07;20.66;47.86
68912;SHT31;55953;51.650;-0.522;2023-06-05T14:29:37;20.67;48.95
68912;SHT31;55953;51.650;-0.522;2023-06-05T14:32:05;20.54;48.24
68912;SHT31;55953;51.650;-0.522;2023-06-05T14:34:33;20.34;49.06
68912;SHT31;55953;51.650;-0.522;2023-06-05T14:37:01;20.67;48.99
68912;SHT31;55953;51.650;-0.522;2023-06-05T14:39:29;20.69;48.39
68912;SHT31;55953;51.650;-0.522;2023-06-05T14:41:57;20.51;48.67
68912;SHT31;55953;51.650;-0.522;2023-06-05T14:44:25;20.48;48.74
68912;SHT31;55953;51.650;-0.522;2023-06-05T14:46:53;20.24;48.26
68912;SHT31;55953;51.650;-0.522;2023-06-05T14:49:23;20.11;49.23
68912;SHT31;55953;51.650;-0.522;2023-06-05T14:51:52;20.17;49.43
68912;SHT31;55953;51.650;-0.522;2023-06-05T14:54:20;20.01;49.32
68912;SHT31;55953;51.650;-0.522;2023-06-05T14:56:48;19.80;49.92
68912;SHT31;55953;51.650;-0.522;2023-06-05T14:59:16;20.02;50.10
68912;SHT31;55953;51.650;-0.522;2023-06-05T15:01:46;19.90;50.20
68912;SHT31;55953;51.650;-0.522;2023-06-05T15:04:14;19.82;50.93
68912;SHT31;55953;51.650;-0.522;2023-06-05T15:06:42;19.72;51.13
68912;SHT31;55953;51.650;-0.522;2023-06-05T15:09:10;19.79;51.16
68912;SHT31;55953;51.650;-0.522;2023-06-05T15:11:38;19.99;51.06
68912;SHT31;55953;51.650;-0.522;2023-06-05T15:14:06;20.18;50.44
68912;SHT31;55953;51.650;-0.522;2023-06-05T15:16:34;20.07;49.79
68912;SHT31;55953;51.650;-0.522;2023-06-05T15:19:09;19.85;50.48
68912;SHT31;55953;51.650;-0.522;2023-06-05T15:21:37;19.93;50.38
68912;SHT31;55953;51.650;-0.522;2023-06-05T15:24:06;19.99;50.61
68912;SHT31;55953;51.650;-0.522;2023-06-05T15:26:34;19.83;49.58
68912;SHT31;55953;51.650;-0.522;2023-06-05T15:29:02;19.69;50.22
68912;SHT31;55953;51.650;-0.522;2023-06-05T15:31:30;19.72;50.51
68912;SHT31;55953;51.650;-0.522;2023-06-05T15:33:58;19.69;50.64
68912;SHT31;55953;51.650;-0.522;2023-06-05T15:36:28;19.66;50.23
68912;SHT31;55953;51.650;-0.522;2023-06-05T15:38:55;19.77;50.63
68912;SHT31;55953;51.650;-0.522;2023-06-05T15:41:24;20.24;50.39
68912;SHT31;55953;51.650;-0.522;2023-06-05T15:43:53;20.62;49.88
68912;SHT31;55953;51.650;-0.522;2023-06-05T15:46:21;20.53;48.77
68912;SHT31;55953;51.650;-0.522;2023-06-05T15:48:50;20.31;49.18
68912;SHT31;55953;51.650;-0.522;2023-06-05T15:51:18;20.28;49.65
68912;SHT31;55953;51.650;-0.522;2023-06-05T15:53:46;20.23;49.62
68912;SHT31;55953;51.650;-0.522;2023-06-05T15:56:24;19.99;49.52
68912;SHT31;55953;51.650;-0.522;2023-06-05T15:58:53;19.90;50.19
68912;SHT31;55953;51.650;-0.522;2023-06-05T16:01:22;19.88;50.14
68912;SHT31;55953;51.650;-0.522;2023-06-05T16:03:51;19.59;50.04
68912;SHT31;55953;51.650;-0.522;2023-06-05T16:06:19;19.45;50.60
68912;SHT31;55953;51.650;-0.522;2023-06-05T16:08:47;19.29;50.90
68912;SHT31;55953;51.650;-0.522;2023-06-05T16:11:15;19.26;51.22
68912;SHT31;55953;51.650;-0.522;2023-06-05T16:13:44;19.26;51.31
68912;SHT31;55953;51.650;-0.522;2023-06-05T16:16:12;19.34;51.35
68912;SHT31;55953;51.650;-0.522;2023-06-05T16:18:40;19.39;51.11
68912;SHT31;55953;51.650;-0.522;2023-06-05T16:21:08;19.26;51.17
68912;SHT31;55953;51.650;-0.522;2023-06-05T16:23:36;19.28;51.02
68912;SHT31;55953;51.650;-0.522;2023-06-05T16:26:07;19.19;50.90
68912;SHT31;55953;51.650;-0.522;2023-06-05T16:28:34;19.26;51.31